createdAt,value
2023-02-07T00:01:46.499Z,90.50
2023-02-07T00:04:15.506Z,90.50
2023-02-07T00:06:44.542Z,90.60
2023-02-07T00:09:18.572Z,90.60
2023-02-07T00:11:47.628Z,90.60
2023-02-07T00:14:16.783Z,90.60
2023-02-07T00:16:45.837Z,90.60
2023-02-07T00:19:14.953Z,90.60
2023-02-07T00:21:43.932Z,90.70
2023-02-07T00:24:13.281Z,90.60
2023-02-07T00:26:42.301Z,90.70
2023-02-07T00:29:12.578Z,90.60
2023-02-07T00:31:41.951Z,90.60
2023-02-07T00:34:12.268Z,90.50
2023-02-07T00:36:42.322Z,90.60
2023-02-07T00:39:15.813Z,90.60
2023-02-07T00:41:46.039Z,90.60
2023-02-07T00:44:15.086Z,90.90
2023-02-07T00:46:44.066Z,90.60
2023-02-07T00:49:13.650Z,90.50
2023-02-07T00:51:42.927Z,90.40
2023-02-07T00:54:11.920Z,90.40
2023-02-07T00:56:40.950Z,90.30
2023-02-07T00:59:10.521Z,90.00
2023-02-07T01:01:39.694Z,89.90
2023-02-07T01:04:08.766Z,89.90
2023-02-07T01:06:38.251Z,90.10
2023-02-07T01:09:08.063Z,90.10
2023-02-07T01:11:37.156Z,90.20
2023-02-07T01:14:06.244Z,90.20
2023-02-07T01:16:37.369Z,90.10
2023-02-07T01:19:09.754Z,90.00
2023-02-07T01:21:39.291Z,90.00
2023-02-07T01:24:09.847Z,90.00
2023-02-07T01:26:39.767Z,90.00
2023-02-07T01:29:09.212Z,89.70
2023-02-07T01:31:38.197Z,89.50
2023-02-07T01:34:07.173Z,89.40
2023-02-07T01:36:36.173Z,89.40
2023-02-07T01:39:06.087Z,89.10
2023-02-07T01:41:35.044Z,88.70
2023-02-07T01:44:10.519Z,88.50
2023-02-07T01:46:39.411Z,88.20
2023-02-07T01:49:12.835Z,87.90
2023-02-07T01:51:54.745Z,87.60
2023-02-07T01:54:27.294Z,87.40
2023-02-07T01:57:00.889Z,87.10
2023-02-07T01:59:30.788Z,86.60
2023-02-07T02:02:03.587Z,86.40
2023-02-07T02:04:32.599Z,86.00
2023-02-07T02:07:01.629Z,85.60
2023-02-07T02:09:31.055Z,85.40
2023-02-07T02:12:11.714Z,85.00
2023-02-07T02:15:11.111Z,84.70
2023-02-07T02:17:57.733Z,84.00
2023-02-07T02:20:45.521Z,83.70
2023-02-07T02:23:41.089Z,83.70
2023-02-07T02:26:43.924Z,83.30
2023-02-07T02:29:56.816Z,82.60
2023-02-07T02:32:59.359Z,82.00
2023-02-07T02:36:12.159Z,81.40
2023-02-07T02:39:09.697Z,81.90
2023-02-07T02:41:55.330Z,80.50
2023-02-07T02:44:48.686Z,80.30
2023-02-07T02:47:19.759Z,80.50
2023-02-07T02:49:49.980Z,80.20
2023-02-07T02:52:18.846Z,80.40
2023-02-07T02:54:47.839Z,80.00
2023-02-07T02:57:19.632Z,79.60
2023-02-07T02:59:57.571Z,79.70
2023-02-07T03:02:32.565Z,79.00
2023-02-07T03:05:19.015Z,78.80
2023-02-07T03:07:50.911Z,77.40
2023-02-07T03:10:35.157Z,78.00
2023-02-07T03:13:26.390Z,77.60
2023-02-07T03:16:04.606Z,77.50
2023-02-07T03:18:39.510Z,77.40
2023-02-07T03:21:17.092Z,77.60
2023-02-07T03:23:48.319Z,77.10
2023-02-07T03:26:17.909Z,77.30
2023-02-07T03:28:49.522Z,76.90
2023-02-07T03:31:22.318Z,76.90
2023-02-07T03:33:56.093Z,76.30
2023-02-07T03:36:58.659Z,75.70
2023-02-07T03:39:28.255Z,75.50
2023-02-07T03:42:05.381Z,75.10
2023-02-07T03:44:36.235Z,74.80
2023-02-07T03:47:06.375Z,74.70
2023-02-07T03:49:35.403Z,73.90
2023-02-07T03:52:04.575Z,73.60
2023-02-07T03:54:33.531Z,73.70
2023-02-07T03:57:02.407Z,73.50
2023-02-07T03:59:31.353Z,73.40
2023-02-07T04:02:00.244Z,73.20
2023-02-07T04:04:29.541Z,73.10
2023-02-07T04:06:58.681Z,72.80
2023-02-07T04:09:27.742Z,72.50
2023-02-07T04:11:56.686Z,73.10
2023-02-07T04:14:25.669Z,72.40
2023-02-07T04:16:54.613Z,72.30
2023-02-07T04:19:23.771Z,71.90
2023-02-07T04:21:52.853Z,71.90
2023-02-07T04:24:21.855Z,71.30
2023-02-07T04:26:50.806Z,71.20
2023-02-07T04:29:19.786Z,70.90
2023-02-07T04:31:49.004Z,70.10
2023-02-07T04:34:18.108Z,69.70
2023-02-07T04:36:47.104Z,71.10
2023-02-07T04:39:16.114Z,70.00
2023-02-07T04:41:45.188Z,70.40
2023-02-07T04:44:14.178Z,69.70
2023-02-07T04:46:43.277Z,69.30
2023-02-07T04:49:12.351Z,69.10
2023-02-07T04:51:41.291Z,69.00
2023-02-07T04:54:11.366Z,68.10
2023-02-07T04:56:40.572Z,68.50
2023-02-07T04:59:09.543Z,68.20
2023-02-07T05:01:38.531Z,68.00
2023-02-07T05:04:07.498Z,68.40
2023-02-07T05:06:36.804Z,68.80
2023-02-07T05:09:05.803Z,68.70
2023-02-07T05:11:34.992Z,67.40
2023-02-07T05:14:03.949Z,67.10
2023-02-07T05:16:32.878Z,66.70
2023-02-07T05:19:01.818Z,68.10
2023-02-07T05:21:30.758Z,68.00
2023-02-07T05:23:59.612Z,68.10
2023-02-07T05:26:28.475Z,67.90
2023-02-07T05:28:57.336Z,68.10
2023-02-07T05:31:46.167Z,68.10
2023-02-07T05:34:15.207Z,68.10
2023-02-07T05:36:44.148Z,67.20
2023-02-07T05:39:13.192Z,68.20
2023-02-07T05:41:42.121Z,68.00
2023-02-07T05:44:11.188Z,68.00
2023-02-07T05:46:40.231Z,67.10
2023-02-07T05:49:09.173Z,67.30
2023-02-07T05:51:38.089Z,66.40
2023-02-07T05:54:07.024Z,66.30
2023-02-07T05:56:36.211Z,66.70
2023-02-07T05:59:05.136Z,66.00
2023-02-07T06:01:35.912Z,65.50
2023-02-07T06:04:06.040Z,64.80
2023-02-07T06:06:35.131Z,64.40
2023-02-07T06:09:03.998Z,63.90
2023-02-07T06:11:32.851Z,63.40
2023-02-07T06:14:01.803Z,63.80
2023-02-07T06:16:30.771Z,62.30
2023-02-07T06:18:59.743Z,61.10
2023-02-07T06:21:45.131Z,62.80
2023-02-07T06:24:15.646Z,63.20
2023-02-07T06:26:45.567Z,63.40
2023-02-07T06:29:14.703Z,62.50
2023-02-07T06:31:43.793Z,63.20
2023-02-07T06:34:12.831Z,62.40
2023-02-07T06:36:41.745Z,63.00
2023-02-07T06:39:10.900Z,61.30
2023-02-07T06:41:39.936Z,60.20
2023-02-07T06:44:09.017Z,62.30
2023-02-07T06:46:38.020Z,61.50
2023-02-07T06:49:07.251Z,61.70
2023-02-07T06:51:36.247Z,61.30
2023-02-07T06:54:09.403Z,61.70
2023-02-07T06:56:39.236Z,61.60
2023-02-07T06:59:08.239Z,61.00
2023-02-07T07:01:37.182Z,61.00
2023-02-07T07:04:06.281Z,60.90
2023-02-07T07:06:35.584Z,61.40
2023-02-07T07:09:04.767Z,60.60
2023-02-07T07:11:33.788Z,60.20
2023-02-07T07:14:03.801Z,59.90
2023-02-07T07:16:32.736Z,59.00
2023-02-07T07:19:01.712Z,59.60
2023-02-07T07:21:30.825Z,59.00
2023-02-07T07:23:59.827Z,59.10
2023-02-07T07:26:39.516Z,59.40
2023-02-07T07:29:15.970Z,59.30
2023-02-07T07:31:45.159Z,58.30
2023-02-07T07:34:14.423Z,58.60
2023-02-07T07:36:43.847Z,58.70
2023-02-07T07:39:13.002Z,60.00
2023-02-07T07:41:42.066Z,59.30
2023-02-07T07:44:11.103Z,58.90
2023-02-07T07:46:40.172Z,58.70
2023-02-07T07:49:09.435Z,58.80
2023-02-07T07:51:38.575Z,58.70
2023-02-07T07:54:07.505Z,59.00
2023-02-07T07:56:36.600Z,59.30
2023-02-07T07:59:06.040Z,58.80
2023-02-07T08:01:41.165Z,59.30
2023-02-07T08:04:10.140Z,59.40
2023-02-07T08:06:39.105Z,59.20
2023-02-07T08:09:07.992Z,59.20
2023-02-07T08:11:36.899Z,59.20
2023-02-07T08:14:05.885Z,59.50
2023-02-07T08:16:34.887Z,59.30
2023-02-07T08:19:03.904Z,59.30
2023-02-07T08:21:33.683Z,59.70
2023-02-07T08:24:02.604Z,59.90
2023-02-07T08:26:31.910Z,60.20
2023-02-07T08:29:00.841Z,59.90
2023-02-07T08:31:29.849Z,59.90
2023-02-07T08:33:59.001Z,59.70
2023-02-07T08:36:27.922Z,59.30
2023-02-07T08:38:56.923Z,59.80
2023-02-07T08:41:25.910Z,59.70
2023-02-07T08:43:54.847Z,59.00
2023-02-07T08:46:23.814Z,59.00
2023-02-07T08:48:52.776Z,59.00
2023-02-07T08:51:22.604Z,59.00
2023-02-07T08:53:51.528Z,59.00
2023-02-07T08:56:20.440Z,59.00
2023-02-07T08:58:49.417Z,58.90
2023-02-07T09:01:18.304Z,58.70
2023-02-07T09:03:47.265Z,58.40
2023-02-07T09:06:16.216Z,58.60
2023-02-07T09:08:45.276Z,58.30
2023-02-07T09:11:14.203Z,57.80
2023-02-07T09:13:46.376Z,58.10
2023-02-07T09:16:16.617Z,57.80
2023-02-07T09:18:45.624Z,57.60
2023-02-07T09:21:14.582Z,57.40
2023-02-07T09:23:43.483Z,57.00
2023-02-07T09:26:21.624Z,57.50
2023-02-07T09:28:50.734Z,57.30
2023-02-07T09:31:19.986Z,57.60
2023-02-07T09:33:49.114Z,57.40
2023-02-07T09:36:24.002Z,57.30
2023-02-07T09:38:53.568Z,57.80
2023-02-07T09:41:47.213Z,57.50
2023-02-07T09:44:45.867Z,56.90
2023-02-07T09:47:22.428Z,57.30
2023-02-07T09:50:07.577Z,57.60
2023-02-07T09:52:46.455Z,57.60
2023-02-07T09:55:51.987Z,58.20
2023-02-07T09:58:34.815Z,56.20
2023-02-07T10:01:11.727Z,57.60
2023-02-07T10:04:04.537Z,57.30
2023-02-07T10:06:34.462Z,57.50
2023-02-07T10:09:03.770Z,57.60
2023-02-07T10:11:54.464Z,57.60
2023-02-07T10:14:30.632Z,57.00
2023-02-07T10:17:31.622Z,57.80
2023-02-07T10:20:21.430Z,57.50
2023-02-07T10:23:16.620Z,57.90
2023-02-07T10:26:03.954Z,58.10
2023-02-07T10:28:47.884Z,58.30
2023-02-07T10:31:18.651Z,58.50
2023-02-07T10:34:16.209Z,58.60
2023-02-07T10:36:49.146Z,58.80
2023-02-07T10:39:34.793Z,58.90
2023-02-07T10:42:03.642Z,59.00
2023-02-07T10:44:32.898Z,59.20
2023-02-07T10:47:05.382Z,59.30
2023-02-07T10:49:37.424Z,59.50
2023-02-07T10:52:24.800Z,59.70
2023-02-07T10:54:56.816Z,59.40
2023-02-07T10:57:27.292Z,59.90
2023-02-07T11:00:16.375Z,60.00
2023-02-07T11:02:51.109Z,60.00
2023-02-07T11:05:20.001Z,60.20
2023-02-07T11:08:10.095Z,60.40
2023-02-07T11:10:41.930Z,60.50
2023-02-07T11:13:29.767Z,61.00
2023-02-07T11:16:05.924Z,61.30
2023-02-07T11:18:45.309Z,61.60
2023-02-07T11:21:37.048Z,61.80
2023-02-07T11:24:09.364Z,62.10
2023-02-07T11:26:48.903Z,62.40
2023-02-07T11:29:20.565Z,62.40
2023-02-07T11:31:51.181Z,62.60
2023-02-07T11:34:49.410Z,62.70
2023-02-07T11:38:00.185Z,63.00
2023-02-07T11:40:37.573Z,63.30
2023-02-07T11:43:16.842Z,63.30
2023-02-07T11:45:49.500Z,63.60
2023-02-07T11:48:22.341Z,63.60
2023-02-07T11:50:56.181Z,63.60
2023-02-07T11:53:33.616Z,63.80
2023-02-07T11:56:02.745Z,63.90
2023-02-07T11:58:47.684Z,64.10
2023-02-07T12:01:19.827Z,64.20
2023-02-07T12:04:04.619Z,64.30
2023-02-07T12:06:52.975Z,64.40
2023-02-07T12:09:57.328Z,64.80
2023-02-07T12:12:47.574Z,64.90
2023-02-07T12:15:19.659Z,65.00
2023-02-07T12:17:58.378Z,65.00
2023-02-07T12:20:55.120Z,65.20
2023-02-07T12:23:41.963Z,65.90
2023-02-07T12:26:18.941Z,65.60
2023-02-07T12:29:07.509Z,65.90
2023-02-07T12:32:08.317Z,66.00
2023-02-07T12:35:12.748Z,66.10
2023-02-07T12:37:44.743Z,66.20
2023-02-07T12:40:32.118Z,66.20
2023-02-07T12:43:22.515Z,66.30
2023-02-07T12:45:57.719Z,66.80
2023-02-07T12:48:44.723Z,66.90
2023-02-07T12:51:50.676Z,67.10
2023-02-07T12:54:45.976Z,67.50
2023-02-07T12:57:40.142Z,67.80
2023-02-07T13:00:25.576Z,68.20
2023-02-07T13:03:25.162Z,68.20
2023-02-07T13:06:09.643Z,68.40
2023-02-07T13:08:53.970Z,68.00
2023-02-07T13:12:00.030Z,68.10
2023-02-07T13:14:50.610Z,69.00
2023-02-07T13:17:43.810Z,68.50
2023-02-07T13:20:31.078Z,68.80
2023-02-07T13:23:10.898Z,69.50
2023-02-07T13:25:44.740Z,69.10
2023-02-07T13:28:48.082Z,69.00
2023-02-07T13:31:42.313Z,69.90
2023-02-07T13:34:39.186Z,69.50
2023-02-07T13:37:16.978Z,69.70
2023-02-07T13:39:56.523Z,69.90
2023-02-07T13:42:37.268Z,70.50
2023-02-07T13:45:31.550Z,69.70
2023-02-07T13:48:23.787Z,70.20
2023-02-07T13:51:02.025Z,71.00
2023-02-07T13:54:09.064Z,70.60
2023-02-07T13:56:56.413Z,71.40
2023-02-07T13:59:40.034Z,70.80
2023-02-07T14:02:16.284Z,71.10
2023-02-07T14:05:00.406Z,71.60
2023-02-07T14:07:35.436Z,71.00
2023-02-07T14:10:06.964Z,73.20
2023-02-07T14:12:41.955Z,71.30
2023-02-07T14:15:29.709Z,71.30
2023-02-07T14:18:02.480Z,72.10
2023-02-07T14:20:47.737Z,71.30
2023-02-07T14:23:21.486Z,71.50
2023-02-07T14:25:51.795Z,71.50
2023-02-07T14:28:34.322Z,74.30
2023-02-07T14:31:25.223Z,72.60
2023-02-07T14:34:15.715Z,72.90
2023-02-07T14:36:45.146Z,73.40
2023-02-07T14:39:22.221Z,73.20
2023-02-07T14:41:53.298Z,73.30
2023-02-07T14:44:37.811Z,72.90
2023-02-07T14:47:10.314Z,73.50
2023-02-07T14:49:46.167Z,73.40
2023-02-07T14:52:37.513Z,73.20
2023-02-07T14:55:25.605Z,74.10
2023-02-07T14:58:08.514Z,73.40
2023-02-07T15:00:56.265Z,73.50
2023-02-07T15:03:25.342Z,73.90
2023-02-07T15:06:00.499Z,73.60
2023-02-07T15:08:31.892Z,73.70
2023-02-07T15:11:06.019Z,73.60
2023-02-07T15:13:38.925Z,73.70
2023-02-07T15:16:16.172Z,74.00
2023-02-07T15:19:20.536Z,74.10
2023-02-07T15:21:52.943Z,75.00
2023-02-07T15:24:50.715Z,74.30
2023-02-07T15:27:30.043Z,75.00
2023-02-07T15:30:04.445Z,74.20
2023-02-07T15:32:43.822Z,74.20
2023-02-07T15:35:31.064Z,74.20
2023-02-07T15:38:18.212Z,74.50
2023-02-07T15:40:47.480Z,74.70
2023-02-07T15:43:36.935Z,74.20
2023-02-07T15:46:11.920Z,74.70
2023-02-07T15:49:00.993Z,74.10
2023-02-07T15:51:32.545Z,74.80
2023-02-07T15:54:03.600Z,74.10
2023-02-07T15:56:33.034Z,74.20
2023-02-07T15:59:12.079Z,74.20
2023-02-07T16:01:42.369Z,74.40
2023-02-07T16:04:11.604Z,74.50
2023-02-07T16:06:57.374Z,74.50
2023-02-07T16:10:15.782Z,75.00
2023-02-07T16:12:54.154Z,75.60
2023-02-07T16:15:33.398Z,74.70
2023-02-07T16:18:04.852Z,74.80
2023-02-07T16:20:37.981Z,74.60
2023-02-07T16:23:10.910Z,74.60
2023-02-07T16:25:39.862Z,74.90
2023-02-07T16:28:12.651Z,74.70
2023-02-07T16:30:42.553Z,74.80
2023-02-07T16:33:14.840Z,74.70
2023-02-07T16:35:43.891Z,74.70
2023-02-07T16:38:12.995Z,74.60
2023-02-07T16:40:42.377Z,74.50
2023-02-07T16:43:19.137Z,74.40
2023-02-07T16:45:48.101Z,74.60
2023-02-07T16:48:17.095Z,74.50
2023-02-07T16:50:45.957Z,74.50
2023-02-07T16:53:15.367Z,74.50
2023-02-07T16:55:44.283Z,74.60
2023-02-07T16:58:30.444Z,74.60
2023-02-07T17:00:59.639Z,75.60
2023-02-07T17:03:28.677Z,74.90
2023-02-07T17:05:57.822Z,74.90
2023-02-07T17:08:31.312Z,75.00
2023-02-07T17:11:03.297Z,75.00
2023-02-07T17:13:32.353Z,75.10
2023-02-07T17:16:01.416Z,75.10
2023-02-07T17:18:30.423Z,75.30
2023-02-07T17:20:59.435Z,75.30
2023-02-07T17:23:29.693Z,75.30
2023-02-07T17:25:58.914Z,75.30
2023-02-07T17:28:27.965Z,75.30
2023-02-07T17:30:57.812Z,75.10
2023-02-07T17:33:27.735Z,75.30
2023-02-07T17:35:56.750Z,75.30
2023-02-07T17:38:25.697Z,75.50
2023-02-07T17:40:54.807Z,75.50
2023-02-07T17:43:23.944Z,75.70
2023-02-07T17:45:53.011Z,75.80
2023-02-07T17:48:22.044Z,75.70
2023-02-07T17:50:51.013Z,75.90
2023-02-07T17:53:22.650Z,76.00
2023-02-07T17:55:52.297Z,75.90
2023-02-07T17:58:21.356Z,76.20
2023-02-07T18:00:50.480Z,76.10
2023-02-07T18:03:19.653Z,75.90
2023-02-07T18:05:48.650Z,75.90
2023-02-07T18:08:17.694Z,76.60
2023-02-07T18:10:46.564Z,75.80
2023-02-07T18:13:15.455Z,75.60
2023-02-07T18:15:45.760Z,75.70
2023-02-07T18:18:16.447Z,75.50
2023-02-07T18:20:45.840Z,75.80
2023-02-07T18:23:16.156Z,75.80
2023-02-07T18:25:50.024Z,75.80
2023-02-07T18:28:18.684Z,75.80
2023-02-07T18:30:47.719Z,77.70
2023-02-07T18:33:18.216Z,76.20
2023-02-07T18:35:47.921Z,76.00
2023-02-07T18:38:16.816Z,76.10
2023-02-07T18:40:45.724Z,77.00
2023-02-07T18:43:14.705Z,76.30
2023-02-07T18:45:43.679Z,76.20
2023-02-07T18:48:12.685Z,76.30
2023-02-07T18:50:47.429Z,76.60
2023-02-07T18:53:16.459Z,76.50
2023-02-07T18:55:45.371Z,76.50
2023-02-07T18:58:14.264Z,76.60
2023-02-07T19:00:44.431Z,76.50
2023-02-07T19:03:13.327Z,76.60
2023-02-07T19:05:42.336Z,76.60
2023-02-07T19:08:11.406Z,76.50
2023-02-07T19:10:40.536Z,76.50
2023-02-07T19:13:09.553Z,76.70
2023-02-07T19:15:38.495Z,76.70
2023-02-07T19:18:07.529Z,76.60
2023-02-07T19:20:36.460Z,76.70
2023-02-07T19:23:06.374Z,77.20
2023-02-07T19:25:35.990Z,77.10
2023-02-07T19:28:04.975Z,76.90
2023-02-07T19:30:33.963Z,77.00
2023-02-07T19:33:03.214Z,77.10
2023-02-07T19:35:32.093Z,77.00
2023-02-07T19:38:01.044Z,77.30
2023-02-07T19:40:29.964Z,77.00
2023-02-07T19:42:58.922Z,77.90
2023-02-07T19:45:28.064Z,77.00
2023-02-07T19:47:57.042Z,77.10
2023-02-07T19:50:27.335Z,77.10
2023-02-07T19:52:56.424Z,77.20
2023-02-07T19:55:25.314Z,77.50
2023-02-07T19:57:55.633Z,77.50
2023-02-07T20:00:24.589Z,77.00
2023-02-07T20:02:53.490Z,77.30
2023-02-07T20:05:22.412Z,77.20
2023-02-07T20:07:51.366Z,77.20
2023-02-07T20:10:20.809Z,77.20
2023-02-07T20:12:50.092Z,77.20
2023-02-07T20:15:19.211Z,77.30
2023-02-07T20:17:49.473Z,77.10
2023-02-07T20:20:19.107Z,77.40
2023-02-07T20:22:48.047Z,77.30
2023-02-07T20:25:17.392Z,77.20
2023-02-07T20:27:46.362Z,77.50
2023-02-07T20:30:15.666Z,77.30
2023-02-07T20:32:45.479Z,77.30
2023-02-07T20:35:15.868Z,77.70
2023-02-07T20:37:44.842Z,77.40
2023-02-07T20:40:13.907Z,77.40
2023-02-07T20:42:42.864Z,77.30
2023-02-07T20:45:12.811Z,77.20
2023-02-07T20:47:41.830Z,77.10
2023-02-07T20:50:11.027Z,77.00
2023-02-07T20:52:39.994Z,77.10
2023-02-07T20:55:10.068Z,77.20
2023-02-07T20:57:39.014Z,77.00
2023-02-07T21:00:09.719Z,76.90
2023-02-07T21:02:39.286Z,77.70
2023-02-07T21:05:08.773Z,77.10
2023-02-07T21:07:37.848Z,77.00
2023-02-07T21:10:07.267Z,77.00
2023-02-07T21:12:36.154Z,76.90
2023-02-07T21:15:05.127Z,77.00
2023-02-07T21:17:33.998Z,76.90
2023-02-07T21:20:02.897Z,76.90
2023-02-07T21:22:31.793Z,77.00
2023-02-07T21:25:00.731Z,76.90
2023-02-07T21:27:29.720Z,77.20
2023-02-07T21:29:58.576Z,77.00
2023-02-07T21:32:27.475Z,77.20
2023-02-07T21:34:56.369Z,77.20
2023-02-07T21:37:25.709Z,77.10
2023-02-07T21:39:55.177Z,77.20
2023-02-07T21:42:24.051Z,77.20
2023-02-07T21:44:52.983Z,77.20
2023-02-07T21:47:21.895Z,77.20
2023-02-07T21:49:50.944Z,77.20
2023-02-07T21:52:19.875Z,77.30
2023-02-07T21:54:48.780Z,77.40
2023-02-07T21:57:17.738Z,77.30
2023-02-07T21:59:47.807Z,77.30
2023-02-07T22:02:16.688Z,77.60
2023-02-07T22:04:45.682Z,77.40
2023-02-07T22:07:14.678Z,77.40
2023-02-07T22:09:43.635Z,77.60
2023-02-07T22:12:12.525Z,77.50
2023-02-07T22:14:41.475Z,77.60
2023-02-07T22:17:11.318Z,77.60
2023-02-07T22:19:40.201Z,77.70
2023-02-07T22:22:09.281Z,77.60
2023-02-07T22:24:38.516Z,77.70
2023-02-07T22:27:07.781Z,78.00
2023-02-07T22:29:36.638Z,78.00
2023-02-07T22:32:05.695Z,77.80
2023-02-07T22:34:35.271Z,78.10
2023-02-07T22:37:04.257Z,78.10
2023-02-07T22:39:33.209Z,78.20
2023-02-07T22:42:02.127Z,78.20
2023-02-07T22:44:31.434Z,78.30
2023-02-07T22:47:00.409Z,78.40
2023-02-07T22:49:29.397Z,78.60
2023-02-07T22:51:58.382Z,78.90
2023-02-07T22:54:27.442Z,78.80
2023-02-07T22:56:56.421Z,79.10
2023-02-07T22:59:25.480Z,79.20
2023-02-07T23:01:54.477Z,79.20
2023-02-07T23:04:23.630Z,79.30
2023-02-07T23:06:53.617Z,79.60
2023-02-07T23:09:22.660Z,80.00
2023-02-07T23:11:51.700Z,80.00
2023-02-07T23:14:21.937Z,79.90
2023-02-07T23:16:51.333Z,79.90
2023-02-07T23:19:20.446Z,80.40
2023-02-07T23:21:49.541Z,80.40
2023-02-07T23:24:18.468Z,80.40
2023-02-07T23:26:47.392Z,80.70
2023-02-07T23:29:16.437Z,81.10
2023-02-07T23:31:45.443Z,81.00
2023-02-07T23:34:14.513Z,81.10
2023-02-07T23:36:43.631Z,81.50
2023-02-07T23:39:13.254Z,81.40
2023-02-07T23:41:42.406Z,81.40
2023-02-07T23:44:11.340Z,81.70
2023-02-07T23:46:40.934Z,81.70
2023-02-07T23:49:09.913Z,81.70
2023-02-07T23:51:38.887Z,81.80
2023-02-07T23:54:07.812Z,82.30
2023-02-07T23:56:36.729Z,82.00
2023-02-07T23:59:05.697Z,82.00
